M I D A S
Marine Information and Data Acquisition System
Tripno 1882 of the Zeeleeuw from 2010-05-20 07:24:50 to 2010-05-20 13:17:42
Back to CruiseResearch ActivitiesStationsMapUnderway DataData graphs

EquipmentUnitsComment
TimeDGPSUTC
LatitudeDGPSDM.mWGS84
LongitudeDGPSDM.mWGS84
TemperatureSBE03/SBE38deg celciusITS90
ConductivitySBE21S/mITS90
SalinitySBE21 Practical Salinity Units
ChlorophylAChelsea fluorimeterg/lCalibrated in Aceton
Missing or incorrect values are displayed as -999
Sea surface data collected by the RV Zeeleeuw from 2010-05-20 06:15:02 to 2010-05-20 15:18:10
Time Latitude Longitude Temperature Conductivity Salinity ChlorophylA
2010-05-20 06:16:07 51°13.659 2°55.963 20.3264 0.065786 0.34866 -1.035392
2010-05-20 06:17:08 51°13.661 2°55.961 20.3288 0.065786 0.348681 -1.035392
2010-05-20 06:18:08 51°13.661 2°55.961 20.3443 0.065786 0.348703 -0.965744
2010-05-20 06:19:07 51°13.66 2°55.96 20.3399 0.065786 0.348708 -1.035392
2010-05-20 06:20:08 51°13.661 2°55.96 20.344 0.065786 0.34873 -1.035392
2010-05-20 06:21:08 51°13.661 2°55.96 20.351 0.065786 0.348751 -1.070216
2010-05-20 06:22:09 51°13.662 2°55.96 20.3453 0.065786 0.348773 -1.000568
2010-05-20 06:23:09 51°13.662 2°55.96 20.3495 0.065786 0.348789 -1.000568
2010-05-20 06:24:09 51°13.662 2°55.959 20.3769 0.065786 0.348805 -1.035392
2010-05-20 06:25:09 51°13.663 2°55.959 20.3725 0.065786 0.348843 -1.000568
2010-05-20 06:26:09 51°13.664 2°55.959 20.3818 0.065786 0.348865 -1.000568
2010-05-20 06:27:09 51°13.664 2°55.959 20.3844 0.065786 0.348891 -1.035392
2010-05-20 06:28:09 51°13.664 2°55.959 20.3953 0.065786 0.348913 -1.035392
2010-05-20 06:29:09 51°13.663 2°55.96 20.3893 0.065786 0.34894 -1.035392
2010-05-20 06:30:09 51°13.663 2°55.96 20.3884 0.065786 0.348967 -1.035392
2010-05-20 06:31:09 51°13.663 2°55.96 20.3965 0.065786 0.348994 -1.035392
2010-05-20 06:32:09 51°13.663 2°55.96 20.3992 0.065786 0.349021 -1.000568
2010-05-20 06:33:09 51°13.663 2°55.959 20.4079 0.065786 0.349043 -1.035392
2010-05-20 06:34:09 51°13.663 2°55.959 20.4128 0.065682 0.348501 -1.035392
2010-05-20 06:35:09 51°13.663 2°55.959 20.4281 0.065682 0.348528 -1.035392
2010-05-20 06:36:09 51°13.663 2°55.959 20.4254 0.065682 0.348555 -1.000568
2010-05-20 06:37:09 51°13.663 2°55.959 20.416 0.065682 0.348582 -1.035392
2010-05-20 06:38:09 51°13.662 2°55.959 20.4294 0.065682 0.348609 -1.000568
2010-05-20 06:39:09 51°13.662 2°55.959 20.4273 0.065682 0.34863 -1.000568
2010-05-20 06:40:09 51°13.662 2°55.959 20.4308 0.065682 0.348657 -1.000568
2010-05-20 06:41:09 51°13.661 2°55.959 20.4392 0.065682 0.348684 -1.035392
2010-05-20 06:42:09 51°13.661 2°55.959 20.4521 0.065682 0.3487 -1.035392
2010-05-20 06:43:09 51°13.662 2°55.958 20.4388 0.065682 0.348727 -1.000568
2010-05-20 06:44:09 51°13.662 2°55.959 20.4422 0.065682 0.348754 -1.035392
2010-05-20 06:45:09 51°13.662 2°55.959 20.4503 0.065682 0.348781 -1.035392
2010-05-20 06:46:09 51°13.662 2°55.959 20.457 0.065682 0.348814 -1.000568
2010-05-20 06:47:09 51°13.663 2°55.959 20.4535 0.065682 0.348835 -1.000568
2010-05-20 06:48:09 51°13.663 2°55.959 20.462 0.065682 0.348862 -1.000568
2010-05-20 06:49:09 51°13.663 2°55.959 20.4614 0.065682 0.348889 -1.000568
2010-05-20 06:50:09 51°13.663 2°55.959 20.4653 0.065682 0.348916 -1.000568
2010-05-20 06:51:09 51°13.663 2°55.959 20.4619 0.065682 0.348938 -1.035392
2010-05-20 06:52:09 51°13.663 2°55.959 20.4667 0.065682 0.348965 -1.035392
2010-05-20 06:53:09 51°13.663 2°55.96 20.4585 0.065682 0.348987 -1.000568
2010-05-20 06:54:09 51°13.663 2°55.96 20.4529 0.065682 0.349008 -1.035392
2010-05-20 06:55:09 51°13.663 2°55.96 20.4576 0.065682 0.34903 -1.000568
2010-05-20 06:56:09 51°13.664 2°55.959 20.4456 0.065682 0.349041 -1.035392
2010-05-20 06:57:09 51°13.664 2°55.959 20.4467 0.065682 0.349084 -1.000568
2010-05-20 06:58:09 51°13.665 2°55.959 20.4586 0.065578 0.348536 -1.000568
2010-05-20 06:59:09 51°13.665 2°55.959 20.4543 0.065682 0.349127 -1.000568
2010-05-20 07:00:09 51°13.665 2°55.959 20.448 0.065578 0.348579 -1.000568
2010-05-20 07:01:09 51°13.665 2°55.96 20.4507 0.065682 0.349171 -1.000568
2010-05-20 07:02:09 51°13.665 2°55.96 20.4396 0.065578 0.348633 -1.000568
2010-05-20 07:03:09 51°13.665 2°55.959 20.4443 0.065578 0.348649 -0.965744
2010-05-20 07:04:09 51°13.665 2°55.96 20.4508 0.065578 0.348682 -1.000568
2010-05-20 07:05:09 51°13.663 2°55.961 20.4416 0.065578 0.348709 -1.000568
2010-05-20 07:06:09 51°13.662 2°55.961 20.4344 0.065578 0.34872 -1.035392
2010-05-20 07:07:09 51°13.662 2°55.961 20.4414 0.065578 0.348752 -1.035392
2010-05-20 07:08:09 51°13.663 2°55.96 20.4263 0.065578 0.348763 -1.035392
2010-05-20 07:09:09 51°13.663 2°55.96 20.4247 0.065578 0.34879 -1.000568
2010-05-20 07:10:09 51°13.663 2°55.96 20.4207 0.065578 0.348812 -1.035392
2010-05-20 07:11:09 51°13.663 2°55.96 20.4159 0.065578 0.348833 -1.000568
2010-05-20 07:12:09 51°13.663 2°55.961 20.3991 0.065578 0.348855 -1.000568
2010-05-20 07:13:09 51°13.662 2°55.961 20.4106 0.065578 0.348877 -1.000568
2010-05-20 07:14:09 51°13.662 2°55.962 20.4028 0.065578 0.348904 -1.000568
2010-05-20 07:15:07 51°13.661 2°55.962 20.3923 0.065578 0.348925 -1.035392
2010-05-20 07:16:06 51°13.661 2°55.962 20.4008 0.065578 0.348947 -1.035392
2010-05-20 07:17:05 51°13.662 2°55.962 20.3844 0.065578 0.348969 -1.000568
2010-05-20 07:18:05 51°13.662 2°55.961 20.411 0.065578 0.34899 -1.000568
2010-05-20 07:19:05 51°13.663 2°55.961 20.4264 0.065578 0.349017 -1.035392
2010-05-20 07:20:05 51°13.662 2°55.962 20.4051 0.065578 0.349039 -1.000568
2010-05-20 07:21:05 51°13.662 2°55.963 20.4053 0.065578 0.349061 -1.000568
2010-05-20 07:22:05 51°13.662 2°55.962 20.4032 0.065578 0.349082 -0.965744
2010-05-20 07:23:05 51°13.663 2°55.962 20.4029 0.065578 0.349104 -1.035392
2010-05-20 07:24:05 51°13.663 2°55.96 20.4001 0.065578 0.34912 -1.035392
2010-05-20 07:25:05 51°13.662 2°55.962 20.4006 0.065578 0.349153 -0.965744
2010-05-20 07:26:05 51°13.661 2°55.962 20.3914 0.065578 0.349164 -1.000568
2010-05-20 07:27:05 51°13.665 2°55.941 20.3627 0.065578 0.349186 -1.000568
2010-05-20 07:28:09 51°13.686 2°55.852 20.408 0.065578 0.349207 -1.035392
2010-05-20 07:29:09 51°13.698 2°55.77 20.3925 0.065578 0.349224 -1.035392
2010-05-20 07:30:07 51°13.701 2°55.734 20.4425 0.065578 0.34924 -1.035392
2010-05-20 07:31:05 51°13.71 2°55.735 20.3096 0.065578 0.349251 -1.000568
2010-05-20 07:32:09 51°13.71 2°55.725 20.4359 0.065578 0.349267 -1.000568
2010-05-20 07:33:07 51°13.781 2°55.677 20.2322 0.065474 0.348701 -1.035392
2010-05-20 07:34:05 51°13.895 2°55.593 20.2261 0.065474 0.348739 -1.035392
2010-05-20 07:35:05 51°14.025 2°55.497 20.2213 0.065474 0.348745 -1.035392
2010-05-20 07:36:05 51°14.156 2°55.391 20.2286 0.065578 0.349338 -1.035392
2010-05-20 07:37:05 51°14.296 2°55.255 20.2352 0.065578 0.349359 -1.000568
2010-05-20 07:38:05 51°14.465 2°55.107 20.0783 0.065578 0.349381 -1.035392
2010-05-20 07:39:05 51°14.633 2°54.914 19.9967 0.065474 0.348815 -1.035392
2010-05-20 07:40:05 51°14.815 2°54.702 19.8988 0.065474 0.34881 -1.035392
2010-05-20 07:41:05 51°15 2°54.491 19.8628 0.065578 0.349424 -1.035392
2010-05-20 07:42:05 51°15.19 2°54.288 19.8412 0.065474 0.34888 -1.000568
2010-05-20 07:43:05 51°15.368 2°54.062 19.8655 0.065474 0.348918 -1.035392
2010-05-20 07:44:05 51°15.554 2°53.848 19.8241 0.065578 0.349484 -1.000568
2010-05-20 07:45:04 51°15.741 2°53.643 19.8015 0.065474 0.34894 -1.000568
2010-05-20 07:46:05 51°15.937 2°53.438 19.8489 0.065474 0.348956 -1.035392
2010-05-20 07:47:05 51°16.137 2°53.259 19.837 0.065474 0.348984 -1.035392
2010-05-20 07:48:05 51°16.347 2°53.098 19.824 0.065474 0.349005 -1.035392
2010-05-20 07:49:05 51°16.553 2°52.932 19.8155 0.065474 0.349022 -1.035392
2010-05-20 07:50:05 51°16.767 2°52.79 19.8327 0.065474 0.349054 -1.035392
2010-05-20 07:51:05 51°16.984 2°52.657 19.8383 0.065474 0.34907 -1.000568
2010-05-20 07:52:05 51°17.204 2°52.525 19.7882 0.065474 0.349098 -0.965744
2010-05-20 07:53:05 51°17.433 2°52.483 19.7991 0.065474 0.349103 -1.035392
2010-05-20 07:54:05 51°17.62 2°52.697 19.8203 0.065474 0.349141 -1.035392
2010-05-20 07:55:05 51°17.785 2°52.963 19.8309 0.065474 0.349157 -1.035392
2010-05-20 07:56:05 51°17.949 2°53.228 19.8566 0.065474 0.349174 -1.000568
2010-05-20 07:57:05 51°18.113 2°53.493 19.8381 0.065474 0.349212 -1.000568
2010-05-20 07:58:05 51°18.274 2°53.759 19.8545 0.065474 0.349239 -1.000568
2010-05-20 07:59:05 51°18.438 2°54.024 19.844 0.065474 0.349261 -1.035392
2010-05-20 08:00:05 51°18.602 2°54.291 19.8664 0.065474 0.349288 -1.000568
2010-05-20 08:01:05 51°18.747 2°54.581 19.8732 0.065474 0.34931 -1.000568
2010-05-20 08:02:05 51°18.864 2°54.898 19.8642 0.065474 0.349337 -1.035392
2010-05-20 08:03:05 51°18.972 2°55.221 19.876 0.065474 0.349353 -1.000568
2010-05-20 08:04:05 51°19.081 2°55.542 19.8928 0.065474 0.34938 -1.035392
2010-05-20 08:05:05 51°19.182 2°55.872 19.8985 0.065474 0.349408 -1.000568
2010-05-20 08:06:05 51°19.272 2°56.208 19.9081 0.065474 0.349435 -0.965744
2010-05-20 08:07:05 51°19.364 2°56.542 19.915 0.065474 0.349457 -1.035392
2010-05-20 08:08:05 51°19.457 2°56.874 19.9268 0.065474 0.349489 -1.000568
2010-05-20 08:09:05 51°19.55 2°57.206 19.9387 0.065474 0.349511 -1.035392
2010-05-20 08:10:05 51°19.643 2°57.537 19.9287 0.065474 0.349533 -1.000568
2010-05-20 08:11:05 51°19.736 2°57.87 19.9343 0.065474 0.34956 -1.035392
2010-05-20 08:12:05 51°19.828 2°58.202 19.9394 0.065474 0.349582 -1.035392
2010-05-20 08:13:05 51°19.92 2°58.533 19.9431 0.06537 0.349042 -1.000568
2010-05-20 08:14:05 51°20.009 2°58.862 19.971 0.06537 0.349075 -1.035392
2010-05-20 08:15:05 51°20.101 2°59.189 19.9754 0.06537 0.349086 -1.000568
2010-05-20 08:16:05 51°20.192 2°59.516 19.9955 0.06537 0.349113 -1.035392
2010-05-20 08:17:05 51°20.286 2°59.842 20.0019 0.06537 0.349129 -1.000568
2010-05-20 08:18:05 51°20.378 3°0.17 20.0018 0.06537 0.349157 -1.035392
2010-05-20 08:19:05 51°20.471 3°0.498 20.016 0.06537 0.349184 -0.965744
2010-05-20 08:20:05 51°20.515 3°0.841 20.0196 0.06537 0.349222 -1.035392
2010-05-20 08:21:05 51°20.519 3°1.192 20.0492 0.06537 0.349249 -1.000568
2010-05-20 08:22:05 51°20.537 3°1.537 20.0361 0.06537 0.349266 -1.000568
2010-05-20 08:23:05 51°20.625 3°1.859 20.0392 0.06537 0.349255 -1.035392
2010-05-20 08:24:05 51°20.702 3°2.188 20.0552 0.06537 0.349309 -1.035392
2010-05-20 08:25:05 51°20.749 3°2.53 20.0658 0.06537 0.349337 -1.000568
2010-05-20 08:26:05 51°20.785 3°2.874 20.0839 0.06537 0.349358 -1.035392
2010-05-20 08:27:05 51°20.814 3°3.22 20.0988 0.06537 0.34938 -1.000568
2010-05-20 08:28:05 51°20.843 3°3.565 20.1077 0.06537 0.349408 -1.035392
2010-05-20 08:29:04 51°20.872 3°3.902 20.1078 0.06537 0.349418 -1.000568
2010-05-20 08:30:03 51°20.901 3°4.24 20.1247 0.06537 0.349446 -1.035392
2010-05-20 08:31:04 51°20.93 3°4.589 20.1113 0.06537 0.349468 -1.035392
2010-05-20 08:32:04 51°20.96 3°4.931 20.1279 0.06537 0.349495 -1.000568
2010-05-20 08:33:04 51°20.986 3°5.215 20.1545 0.06537 0.349528 -1.000568
2010-05-20 08:34:04 51°20.952 3°5.326 20.1618 0.06537 0.349555 -1.035392
2010-05-20 08:35:04 51°20.904 3°5.336 20.1933 0.06537 0.349577 -1.000568
2010-05-20 08:36:04 51°20.865 3°5.293 20.2069 0.06537 0.349593 -1.000568
2010-05-20 08:37:04 51°20.85 3°5.195 20.1894 0.06537 0.349615 -1.000568
2010-05-20 08:38:03 51°20.905 3°5.126 20.2252 0.06537 0.349642 -1.035392
2010-05-20 08:39:04 51°20.98 3°5.154 20.2193 0.06537 0.349648 -1.035392
2010-05-20 08:40:04 51°21.035 3°5.212 20.2338 0.065266 0.349096 -1.035392
2010-05-20 08:41:03 51°21.062 3°5.275 20.2351 0.06537 0.349681 -1.000568
2010-05-20 08:42:05 51°21.083 3°5.353 20.2496 0.06537 0.349697 -1.035392
2010-05-20 08:43:05 51°21.108 3°5.428 20.2697 0.065266 0.349135 -1.035392
2010-05-20 08:44:04 51°21.144 3°5.485 20.2736 0.065266 0.34914 -1.000568
2010-05-20 08:45:04 51°21.19 3°5.531 20.2785 0.065266 0.349156 -1.000568
2010-05-20 08:46:04 51°21.24 3°5.581 20.277 0.065266 0.349173 -1.035392
2010-05-20 08:47:04 51°21.287 3°5.633 20.3071 0.065266 0.349178 -1.000568
2010-05-20 08:48:04 51°21.333 3°5.683 20.3039 0.065266 0.3492 -1.035392
2010-05-20 08:49:04 51°21.379 3°5.734 20.3126 0.065266 0.349211 -1.035392
2010-05-20 08:50:04 51°21.427 3°5.783 20.3233 0.065266 0.349227 -1.035392
2010-05-20 08:51:04 51°21.473 3°5.834 20.3251 0.065266 0.349249 -1.070216
2010-05-20 08:52:05 51°21.517 3°5.894 20.3435 0.065266 0.34926 -1.035392
2010-05-20 08:53:04 51°21.55 3°5.969 20.3615 0.065266 0.349282 -1.035392
2010-05-20 08:54:04 51°21.582 3°6.047 20.3677 0.065266 0.349293 -1.035392
2010-05-20 08:55:04 51°21.616 3°6.124 20.3758 0.065266 0.349304 -1.000568
2010-05-20 08:56:04 51°21.65 3°6.199 20.3798 0.065266 0.34932 -1.000568
2010-05-20 08:57:04 51°21.684 3°6.275 20.3853 0.065266 0.349326 -1.000568
2010-05-20 08:58:04 51°21.716 3°6.354 20.3944 0.065266 0.349353 -1.035392
2010-05-20 08:59:04 51°21.746 3°6.435 20.4152 0.065266 0.349359 -1.035392
2010-05-20 09:00:04 51°21.775 3°6.518 20.4197 0.065266 0.349364 -1.035392
2010-05-20 09:01:04 51°21.8 3°6.604 20.4362 0.065266 0.349386 -1.035392
2010-05-20 09:02:04 51°21.823 3°6.691 20.4444 0.065266 0.349402 -1.000568
2010-05-20 09:03:04 51°21.847 3°6.779 20.4511 0.065266 0.349413 -1.000568
2010-05-20 09:04:04 51°21.874 3°6.864 20.4619 0.065266 0.349424 -1.035392
2010-05-20 09:05:04 51°21.898 3°6.953 20.4554 0.065266 0.349435 -1.035392
2010-05-20 09:06:04 51°21.919 3°7.043 20.4907 0.065266 0.349452 -1.000568
2010-05-20 09:07:04 51°21.936 3°7.135 20.4837 0.065266 0.349457 -1.035392
2010-05-20 09:08:04 51°21.954 3°7.225 20.4998 0.065266 0.349473 -1.035392
2010-05-20 09:09:04 51°21.972 3°7.314 20.5146 0.065162 0.348916 -1.000568
2010-05-20 09:10:04 51°21.991 3°7.401 20.5047 0.065266 0.34949 -1.000568
2010-05-20 09:11:04 51°22.011 3°7.488 20.5367 0.065162 0.348927 -1.000568
2010-05-20 09:12:04 51°22.029 3°7.574 20.5428 0.065266 0.349512 -1.000568
2010-05-20 09:13:04 51°22.046 3°7.662 20.5588 0.065162 0.348949 -1.000568
2010-05-20 09:14:04 51°22.062 3°7.757 20.5521 0.065162 0.348965 -1.000568
2010-05-20 09:15:04 51°22.053 3°7.854 20.5682 0.065162 0.348981 -1.000568
2010-05-20 09:16:04 51°22.032 3°7.936 20.593 0.065162 0.348987 -1.035392
2010-05-20 09:17:04 51°21.994 3°7.969 20.581 0.065162 0.349014 -1.035392
2010-05-20 09:18:04 51°21.928 3°7.986 20.5554 0.065162 0.348992 -1.000568
2010-05-20 09:19:04 51°21.85 3°7.976 20.6187 0.065162 0.349009 -1.000568
2010-05-20 09:20:04 51°21.799 3°7.923 20.6237 0.065162 0.349009 -1.000568
2010-05-20 09:21:04 51°21.764 3°7.862 20.6361 0.065162 0.349014 -1.000568
2010-05-20 09:22:05 51°21.73 3°7.777 20.5931 0.065162 0.349014 -1.035392
2010-05-20 09:23:04 51°21.754 3°7.642 20.5965 0.065162 0.349047 -1.035392
2010-05-20 09:24:04 51°21.859 3°7.662 20.6398 0.065162 0.34902 -1.035392
2010-05-20 09:25:04 51°21.976 3°7.782 20.6135 0.065162 0.349014 -1.035392
2010-05-20 09:26:05 51°22.02 3°7.859 20.6509 0.065162 0.349025 -1.035392
2010-05-20 09:27:05 51°22.039 3°7.863 20.6633 0.065162 0.349025 -1.035392
2010-05-20 09:28:05 51°22.058 3°7.843 20.7 0.065162 0.349025 -1.035392
2010-05-20 09:29:05 51°22.074 3°7.819 20.6859 0.065162 0.349036 -1.035392
2010-05-20 09:30:05 51°22.086 3°7.791 20.7142 0.065162 0.349041 -1.035392
2010-05-20 09:31:05 51°22.095 3°7.763 20.7007 0.065162 0.349047 -1.035392
2010-05-20 09:32:05 51°22.102 3°7.732 20.7067 0.065162 0.349052 -1.035392
2010-05-20 09:33:05 51°22.107 3°7.701 20.7226 0.065162 0.349052 -1.035392
2010-05-20 09:34:05 51°22.111 3°7.668 20.7191 0.065162 0.349052 -1.000568
2010-05-20 09:35:05 51°22.114 3°7.634 20.7408 0.065162 0.349058 -1.035392
2010-05-20 09:36:05 51°22.116 3°7.6 20.737 0.065162 0.349058 -1.035392
2010-05-20 09:37:05 51°22.118 3°7.565 20.7592 0.065162 0.349058 -1.000568
2010-05-20 09:38:05 51°22.119 3°7.53 20.7574 0.065162 0.349063 -1.000568
2010-05-20 09:39:05 51°22.12 3°7.496 20.77 0.065162 0.349063 -1.000568
2010-05-20 09:40:05 51°22.12 3°7.461 20.7909 0.065162 0.349058 -1.035392
2010-05-20 09:41:05 51°22.119 3°7.427 20.7811 0.065162 0.349058 -1.035392
2010-05-20 09:42:05 51°22.119 3°7.393 20.7893 0.065162 0.349047 -1.000568
2010-05-20 09:43:05 51°22.118 3°7.358 20.8089 0.065162 0.349052 -1.035392
2010-05-20 09:44:05 51°22.126 3°7.332 20.7984 0.065162 0.349058 -1.000568
2010-05-20 09:45:05 51°22.155 3°7.291 20.7863 0.065162 0.349052 -1.000568
2010-05-20 09:46:05 51°22.177 3°7.195 20.7301 0.065162 0.349036 -1.035392
2010-05-20 09:47:05 51°22.15 3°7.066 20.7449 0.065162 0.349014 -1.000568
2010-05-20 09:48:05 51°22.074 3°6.825 20.754 0.065162 0.349025 -1.035392
2010-05-20 09:49:05 51°21.984 3°6.487 20.7718 0.065162 0.349025 -1.000568
2010-05-20 09:50:05 51°21.858 3°6.147 20.7853 0.065162 0.349003 -1.000568
2010-05-20 09:51:05 51°21.732 3°5.803 20.8024 0.065162 0.349009 -1.035392
2010-05-20 09:52:05 51°21.613 3°5.45 20.8141 0.065162 0.348998 -1.035392
2010-05-20 09:53:05 51°21.498 3°5.092 20.8297 0.065162 0.348992 -1.000568
2010-05-20 09:54:05 51°21.388 3°4.733 20.8459 0.065162 0.348998 -1.000568
2010-05-20 09:55:05 51°21.28 3°4.374 20.866 0.065162 0.348981 -0.965744
2010-05-20 09:56:05 51°21.169 3°4.018 20.8814 0.065162 0.348998 -1.000568
2010-05-20 09:57:05 51°21.054 3°3.666 20.9021 0.065162 0.348998 -1.000568
2010-05-20 09:58:05 51°20.9 3°3.36 20.9195 0.065266 0.349556 -1.000568
2010-05-20 09:59:05 51°20.789 3°3.017 20.9395 0.065266 0.349539 -1.035392
2010-05-20 10:00:05 51°20.695 3°2.655 20.9581 0.065266 0.34955 -1.035392
2010-05-20 10:01:05 51°20.583 3°2.31 20.9766 0.065266 0.349512 -1.000568
2010-05-20 10:02:05 51°20.538 3°1.924 20.9974 0.065162 0.348959 -1.035392
2010-05-20 10:03:05 51°20.453 3°1.555 21.0131 0.065266 0.349523 -1.035392
2010-05-20 10:04:05 51°20.354 3°1.194 21.0325 0.065266 0.349512 -0.965744
2010-05-20 10:05:05 51°20.26 3°0.83 21.0532 0.065266 0.349512 -1.000568
2010-05-20 10:06:05 51°20.168 3°0.465 21.0694 0.065266 0.349501 -1.035392
2010-05-20 10:07:05 51°20.084 3°0.095 21.0885 0.065266 0.34949 -1.000568
2010-05-20 10:08:05 51°19.995 2°59.728 21.1078 0.065266 0.34949 -1.035392
2010-05-20 10:09:05 51°19.908 2°59.359 21.1228 0.065266 0.349484 -1.000568
2010-05-20 10:10:05 51°19.821 2°58.988 21.1403 0.065266 0.349484 -0.965744
2010-05-20 10:11:05 51°19.734 2°58.617 21.1564 0.065266 0.349473 -1.035392
2010-05-20 10:12:05 51°19.647 2°58.245 21.1704 0.065266 0.349473 -0.965744
2010-05-20 10:13:05 51°19.557 2°57.876 21.1893 0.065266 0.349468 -1.000568
2010-05-20 10:14:05 51°19.47 2°57.506 21.2037 0.065266 0.349446 -1.000568
2010-05-20 10:15:05 51°19.386 2°57.135 21.2225 0.065266 0.349457 -1.000568
2010-05-20 10:16:05 51°19.299 2°56.766 21.2361 0.065266 0.349452 -1.035392
2010-05-20 10:17:05 51°19.209 2°56.403 21.2505 0.065266 0.34943 -1.000568
2010-05-20 10:18:05 51°19.121 2°56.039 21.2689 0.065266 0.34943 -1.035392
2010-05-20 10:19:05 51°19.032 2°55.677 21.2865 0.065266 0.34943 -1.000568
2010-05-20 10:20:05 51°18.947 2°55.316 21.2961 0.065266 0.349413 -1.035392
2010-05-20 10:21:05 51°18.862 2°54.954 21.31 0.065266 0.349408 -1.035392
2010-05-20 10:22:05 51°18.777 2°54.592 21.3254 0.065266 0.349397 -1.000568
2010-05-20 10:23:05 51°18.692 2°54.229 21.341 0.065266 0.349386 -1.000568
2010-05-20 10:24:05 51°18.591 2°53.878 21.3532 0.065266 0.349369 -1.000568
2010-05-20 10:25:05 51°18.505 2°53.518 21.3697 0.065266 0.349359 -1.000568
2010-05-20 10:26:05 51°18.419 2°53.155 21.3802 0.065266 0.349364 -1.035392
2010-05-20 10:27:05 51°18.33 2°52.794 21.3968 0.065266 0.349342 -1.035392
2010-05-20 10:28:05 51°18.176 2°52.513 21.4099 0.065266 0.349348 -1.035392
2010-05-20 10:29:05 51°17.962 2°52.356 21.4201 0.065266 0.34932 -1.000568
2010-05-20 10:30:05 51°17.739 2°52.223 21.4351 0.065266 0.349348 -1.035392
2010-05-20 10:31:05 51°17.502 2°52.194 21.45 0.065266 0.349326 -1.000568
2010-05-20 10:32:05 51°17.264 2°52.175 21.461 0.065266 0.349315 -1.035392
2010-05-20 10:33:05 51°17.027 2°52.157 21.4716 0.065266 0.349277 -1.035392
2010-05-20 10:34:05 51°16.79 2°52.135 21.4822 0.065266 0.349309 -1.000568
2010-05-20 10:35:05 51°16.609 2°51.934 21.5243 0.065266 0.349293 -1.035392
2010-05-20 10:36:06 51°16.455 2°51.642 21.5539 0.06537 0.34985 -0.965744
2010-05-20 10:37:06 51°16.301 2°51.35 21.5748 0.06537 0.349801 -1.035392
2010-05-20 10:38:06 51°16.165 2°51.034 21.5912 0.06537 0.349807 -1.000568
2010-05-20 10:39:06 51°16.042 2°50.699 21.6078 0.06537 0.349807 -1.000568
2010-05-20 10:40:07 51°15.918 2°50.358 21.6507 0.06537 0.34979 -1.000568
2010-05-20 10:41:07 51°15.829 2°49.999 21.6436 0.06537 0.349768 -1.000568
2010-05-20 10:42:07 51°15.745 2°49.638 21.656 0.06537 0.349763 -1.035392
2010-05-20 10:43:07 51°15.659 2°49.277 21.6684 0.06537 0.349763 -1.000568
2010-05-20 10:44:07 51°15.575 2°48.917 21.6845 0.06537 0.349746 -1.000568
2010-05-20 10:45:07 51°15.488 2°48.56 21.7062 0.06537 0.349735 -1.000568
2010-05-20 10:46:07 51°15.402 2°48.202 21.7164 0.06537 0.34973 -1.035392
2010-05-20 10:47:06 51°15.321 2°47.85 21.7325 0.06537 0.349724 -1.035392
2010-05-20 10:48:06 51°15.24 2°47.49 21.7536 0.06537 0.349703 -1.035392
2010-05-20 10:49:06 51°15.155 2°47.131 21.7613 0.06537 0.349686 -1.000568
2010-05-20 10:50:07 51°15.071 2°46.764 21.7803 0.06537 0.349681 -1.000568
2010-05-20 10:51:06 51°14.988 2°46.407 21.3204 0.06537 0.349675 -1.000568
2010-05-20 10:52:06 51°14.903 2°46.042 21.3526 0.06537 0.34967 -0.965744
2010-05-20 10:53:07 51°14.818 2°45.666 21.3291 0.06537 0.349653 -0.965744
2010-05-20 10:54:07 51°14.731 2°45.299 21.3255 0.06537 0.349648 -0.965744
2010-05-20 10:55:07 51°14.643 2°44.931 21.3785 0.06537 0.349642 -1.000568
2010-05-20 10:56:07 51°14.555 2°44.562 21.3837 0.06537 0.349637 -0.965744
2010-05-20 10:57:07 51°14.466 2°44.196 21.3823 0.06537 0.349621 -1.000568
2010-05-20 10:58:06 51°14.372 2°43.84 21.4006 0.06537 0.34961 -1.000568
2010-05-20 10:59:07 51°14.279 2°43.468 21.4152 0.06537 0.349599 -0.965744
2010-05-20 11:00:06 51°14.187 2°43.11 21.4606 0.06537 0.349588 -1.000568
2010-05-20 11:01:06 51°14.095 2°42.745 21.4634 0.06537 0.349577 -1.000568
2010-05-20 11:02:07 51°14.001 2°42.368 21.46 0.06537 0.349577 -0.965744
2010-05-20 11:03:07 51°13.907 2°41.997 21.4742 0.065474 0.350134 -1.000568
2010-05-20 11:04:07 51°13.816 2°41.626 21.4946 0.06537 0.34955 -0.965744
2010-05-20 11:05:07 51°13.726 2°41.254 21.4978 0.065474 0.350106 -1.000568
2010-05-20 11:06:07 51°13.636 2°40.883 21.5135 0.06537 0.349522 -1.000568
2010-05-20 11:07:06 51°13.548 2°40.517 21.5175 0.065474 0.35009 -0.965744
2010-05-20 11:08:06 51°13.456 2°40.144 21.5245 0.065474 0.350068 -1.000568
2010-05-20 11:09:07 51°13.366 2°39.763 21.5662 0.065474 0.350063 -1.000568
2010-05-20 11:10:07 51°13.276 2°39.391 21.5417 0.065474 0.350046 -0.965744
2010-05-20 11:11:07 51°13.186 2°39.021 21.5576 0.065474 0.350035 -1.000568
2010-05-20 11:12:06 51°13.086 2°38.668 21.5617 0.065474 0.35003 -1.000568
2010-05-20 11:13:07 51°12.927 2°38.357 21.5887 0.065474 0.350003 -1.000568
2010-05-20 11:14:07 51°12.754 2°38.081 21.6041 0.065474 0.350003 -0.965744
2010-05-20 11:15:07 51°12.547 2°37.874 21.6 0.065474 0.350003 -0.965744
2010-05-20 11:16:07 51°12.338 2°37.67 21.6141 0.065474 0.34997 -1.000568
2010-05-20 11:17:07 51°12.129 2°37.464 21.6219 0.065474 0.349942 -1.035392
2010-05-20 11:18:07 51°11.921 2°37.251 21.6203 0.065474 0.349937 -1.000568
2010-05-20 11:19:06 51°11.717 2°37.043 21.6294 0.065474 0.349931 -1.000568
2010-05-20 11:20:07 51°11.506 2°36.829 21.6378 0.065474 0.34991 -1.000568
2010-05-20 11:21:07 51°11.297 2°36.619 21.6492 0.065474 0.349904 -1.000568
2010-05-20 11:22:07 51°11.088 2°36.408 21.6542 0.065474 0.349899 -1.000568
2010-05-20 11:23:07 51°10.881 2°36.199 21.6678 0.065474 0.349888 -0.965744
2010-05-20 11:24:07 51°10.674 2°35.993 21.6724 0.065474 0.349871 -1.000568
2010-05-20 11:25:07 51°10.451 2°35.859 21.6871 0.065474 0.349871 -1.000568
2010-05-20 11:26:07 51°10.215 2°35.834 21.6925 0.065578 0.350417 -1.000568
2010-05-20 11:27:07 51°9.974 2°35.807 21.6922 0.065578 0.350428 -0.965744
2010-05-20 11:28:07 51°9.757 2°35.897 21.6996 0.065474 0.349839 -1.000568
2010-05-20 11:29:07 51°9.607 2°36.131 21.7066 0.065578 0.3504 -0.965744
2010-05-20 11:30:07 51°9.557 2°36.432 21.7046 0.065578 0.350329 -1.000568
2010-05-20 11:31:07 51°9.65 2°36.707 21.7232 0.065578 0.350362 -1.000568
2010-05-20 11:32:07 51°9.761 2°36.973 21.7359 0.065578 0.350357 -1.035392
2010-05-20 11:33:07 51°9.874 2°37.241 21.7375 0.065578 0.350329 -0.965744
2010-05-20 11:34:07 51°9.986 2°37.509 21.7477 0.065578 0.350318 -0.965744
2010-05-20 11:35:06 51°10.068 2°37.698 21.7445 0.065578 0.350318 -1.000568
2010-05-20 11:36:07 51°10.116 2°37.782 21.7542 0.065578 0.350308 -1.000568
2010-05-20 11:37:06 51°10.133 2°37.841 21.7632 0.065578 0.350297 -1.000568
2010-05-20 11:38:07 51°10.079 2°37.881 21.7691 0.065578 0.350324 -1.000568
2010-05-20 11:39:07 51°9.986 2°37.856 21.7743 0.065578 0.350286 -0.965744
2010-05-20 11:40:07 51°9.907 2°37.797 21.7827 0.065578 0.350269 -0.965744
2010-05-20 11:41:07 51°9.838 2°37.731 21.7914 0.065578 0.350258 -1.000568
2010-05-20 11:42:06 51°9.775 2°37.662 21.7991 0.065578 0.350253 -1.000568
2010-05-20 11:43:07 51°9.723 2°37.567 21.8064 0.065578 0.350247 -0.965744
2010-05-20 11:44:07 51°9.686 2°37.458 21.8133 0.065578 0.350226 -0.965744
2010-05-20 11:45:06 51°9.657 2°37.345 21.8209 0.065578 0.350215 -1.000568
2010-05-20 11:46:07 51°9.626 2°37.232 21.8276 0.065578 0.350198 -0.965744
2010-05-20 11:47:07 51°9.592 2°37.133 21.8346 0.065682 0.35076 -1.000568
2010-05-20 11:48:07 51°9.555 2°37.045 21.8436 0.065578 0.350171 -1.000568
2010-05-20 11:49:06 51°9.515 2°36.965 21.8502 0.065682 0.350722 -0.965744
2010-05-20 11:50:07 51°9.476 2°36.881 21.8595 0.065682 0.350722 -1.000568
2010-05-20 11:51:06 51°9.44 2°36.788 21.869 0.065682 0.350705 -1.000568
2010-05-20 11:52:06 51°9.403 2°36.685 21.8713 0.065682 0.350689 -1.000568
2010-05-20 11:53:07 51°9.365 2°36.582 21.8813 0.065682 0.350672 -1.000568
2010-05-20 11:54:07 51°9.329 2°36.484 21.8914 0.065682 0.350656 -0.965744
2010-05-20 11:55:06 51°9.295 2°36.389 21.8984 0.065682 0.350645 -1.035392
2010-05-20 11:56:07 51°9.26 2°36.291 21.905 0.065682 0.350634 -1.000568
2010-05-20 11:57:07 51°9.224 2°36.196 21.9092 0.065682 0.350618 -1.000568
2010-05-20 11:58:06 51°9.189 2°36.103 21.919 0.065682 0.350601 -1.000568
2010-05-20 11:59:07 51°9.152 2°36.007 21.9221 0.065682 0.350585 -1.000568
2010-05-20 12:00:07 51°9.117 2°35.911 21.9332 0.065682 0.350568 -1.000568
2010-05-20 12:01:07 51°9.085 2°35.813 21.9402 0.065682 0.350557 -0.965744
2010-05-20 12:02:06 51°9.053 2°35.716 21.9463 0.065682 0.350541 -0.965744
2010-05-20 12:03:07 51°9.02 2°35.615 21.9538 0.065682 0.350525 -1.000568
2010-05-20 12:04:06 51°8.989 2°35.519 21.9616 0.065682 0.350503 -0.965744
2010-05-20 12:05:07 51°8.957 2°35.42 21.9713 0.065682 0.350492 -0.965744
2010-05-20 12:06:07 51°8.927 2°35.327 21.9724 0.065682 0.350476 -0.965744
2010-05-20 12:07:06 51°8.896 2°35.238 21.9831 0.065682 0.350465 -1.000568
2010-05-20 12:08:06 51°8.866 2°35.148 21.986 0.065682 0.350448 -1.000568
2010-05-20 12:09:07 51°8.836 2°35.058 21.9927 0.065786 0.351009 -1.000568
2010-05-20 12:10:07 51°8.807 2°34.971 21.9986 0.065786 0.350987 -0.965744
2010-05-20 12:11:07 51°8.778 2°34.882 22.0125 0.065786 0.350977 -0.965744
2010-05-20 12:12:06 51°8.75 2°34.796 22.0046 0.065786 0.350971 -1.000568
2010-05-20 12:13:07 51°8.719 2°34.707 22.017 0.065786 0.35096 -0.965744
2010-05-20 12:14:06 51°8.688 2°34.614 22.0226 0.065786 0.350944 -1.000568
2010-05-20 12:15:07 51°8.653 2°34.511 22.0264 0.065786 0.350933 -1.000568
2010-05-20 12:16:06 51°8.631 2°34.398 22.0366 0.065786 0.350938 -1.000568
2010-05-20 12:17:07 51°8.624 2°34.273 22.039 0.065786 0.350922 -0.965744
2010-05-20 12:18:07 51°8.623 2°34.146 22.0401 0.065786 0.350905 -0.965744
2010-05-20 12:19:07 51°8.633 2°34.021 22.0451 0.065786 0.350895 -1.000568
2010-05-20 12:20:06 51°8.654 2°33.908 22.0557 0.065786 0.350884 -0.965744
2010-05-20 12:21:07 51°8.694 2°33.817 22.0534 0.065786 0.350884 -1.000568
2010-05-20 12:22:06 51°8.743 2°33.759 22.0591 0.065786 0.350862 -1.000568
2010-05-20 12:23:07 51°8.778 2°33.725 22.0704 0.065786 0.350851 -1.000568
2010-05-20 12:24:07 51°8.799 2°33.702 21.9738 0.065786 0.350834 -0.965744
2010-05-20 12:25:06 51°8.812 2°33.678 21.9932 0.065786 0.350818 -1.000568
2010-05-20 12:26:07 51°8.826 2°33.654 21.9992 0.065786 0.350807 -0.965744
2010-05-20 12:27:07 51°8.861 2°33.694 21.9961 0.065786 0.350802 -0.965744
2010-05-20 12:28:06 51°8.875 2°33.872 22.0158 0.065786 0.350813 -0.965744
2010-05-20 12:29:07 51°8.919 2°34.047 22.0229 0.065786 0.350829 -0.965744
2010-05-20 12:30:07 51°8.973 2°34.078 22.0222 0.065786 0.350791 -1.000568
2010-05-20 12:31:07 51°9.018 2°34.055 22.022 0.065786 0.350774 -0.965744
2010-05-20 12:32:06 51°9.1 2°34.038 21.9984 0.065786 0.35078 -1.000568
2010-05-20 12:33:07 51°9.169 2°34.045 22.0262 0.065786 0.350785 -1.000568
2010-05-20 12:34:07 51°9.199 2°34.052 22.0364 0.06589 0.351346 -1.000568
2010-05-20 12:35:07 51°9.213 2°34.051 22.0461 0.06589 0.351324 -1.000568
2010-05-20 12:36:07 51°9.222 2°34.04 22.0502 0.06589 0.35133 -0.965744
2010-05-20 12:37:07 51°9.236 2°34.027 22.0457 0.06589 0.351319 -0.965744
2010-05-20 12:38:07 51°9.302 2°34.14 22.031 0.065786 0.350769 -1.000568
2010-05-20 12:39:07 51°9.281 2°34.414 22.0453 0.06589 0.351313 -0.965744
2010-05-20 12:40:06 51°9.231 2°34.714 22.0661 0.06589 0.351302 -1.000568
2010-05-20 12:41:07 51°9.182 2°35.031 22.0723 0.06589 0.351297 -0.965744
2010-05-20 12:42:35 51°9.112 2°35.483 22.0849 0.06589 0.351297 -1.000568
2010-05-20 12:43:46 51°9.059 2°35.846 22.099 0.06589 0.351297 -0.965744
2010-05-20 12:44:46 51°9.063 2°36.145 22.1098 0.06589 0.351297 -0.965744
2010-05-20 12:45:46 51°9.051 2°36.311 22.1232 0.06589 0.351291 -1.000568
2010-05-20 12:46:46 51°9.027 2°36.361 22.131 0.06589 0.35128 -1.000568
2010-05-20 12:47:46 51°9.021 2°36.378 22.1355 0.06589 0.351264 -0.965744
2010-05-20 12:48:46 51°9.019 2°36.379 22.1409 0.06589 0.351248 -1.000568
2010-05-20 12:49:46 51°9.018 2°36.371 22.1483 0.06589 0.351242 -1.000568
2010-05-20 12:50:46 51°9.017 2°36.356 22.1577 0.06589 0.351226 -0.965744
2010-05-20 12:51:46 51°9.014 2°36.337 22.1578 0.06589 0.351209 -0.965744
2010-05-20 12:52:46 51°9.01 2°36.314 22.1659 0.06589 0.351209 -1.000568
2010-05-20 12:53:46 51°9.005 2°36.29 22.175 0.06589 0.351193 -0.965744
2010-05-20 12:54:46 51°8.998 2°36.264 22.1866 0.06589 0.351182 -1.000568
2010-05-20 12:55:46 51°8.991 2°36.237 22.1943 0.06589 0.351177 -1.000568
2010-05-20 12:56:46 51°8.984 2°36.209 22.2032 0.06589 0.351155 -0.965744
2010-05-20 12:57:46 51°8.976 2°36.181 22.2123 0.06589 0.351138 -1.000568
2010-05-20 12:58:46 51°8.966 2°36.152 22.2195 0.06589 0.351133 -1.000568
2010-05-20 12:59:46 51°8.957 2°36.123 22.2209 0.06589 0.351122 -1.000568
2010-05-20 13:00:46 51°8.947 2°36.093 22.24 0.06589 0.351111 -1.000568
2010-05-20 13:01:46 51°8.937 2°36.063 22.2386 0.065994 0.351666 -0.965744
2010-05-20 13:02:46 51°8.928 2°36.034 22.2527 0.065994 0.351655 -0.965744
2010-05-20 13:03:46 51°8.918 2°36.003 22.2646 0.065994 0.351649 -0.965744
2010-05-20 13:04:46 51°8.907 2°35.973 22.2666 0.065994 0.351628 -0.965744
2010-05-20 13:05:46 51°8.9 2°35.946 22.264 0.065994 0.351622 -1.000568
2010-05-20 13:06:46 51°8.909 2°35.924 22.2864 0.065994 0.351595 -1.000568
2010-05-20 13:07:46 51°8.944 2°35.883 22.2887 0.065994 0.351578 -0.965744
2010-05-20 13:08:46 51°9.081 2°35.838 22.2855 0.065994 0.351584 -0.965744
2010-05-20 13:09:46 51°9.262 2°35.79 22.3014 0.065994 0.351562 -1.000568
2010-05-20 13:10:46 51°9.45 2°35.739 22.3051 0.065994 0.351557 -0.965744
2010-05-20 13:11:46 51°9.65 2°35.694 22.3311 0.065994 0.351535 -0.965744
2010-05-20 13:12:46 51°9.855 2°35.737 22.3409 0.065994 0.351529 -1.000568
2010-05-20 13:13:46 51°10.053 2°35.831 22.3521 0.065994 0.351518 -1.000568
2010-05-20 13:14:46 51°10.246 2°35.947 22.3575 0.065994 0.351513 -0.965744
2010-05-20 13:15:46 51°10.436 2°36.061 22.3629 0.065994 0.351486 -1.000568
2010-05-20 13:16:46 51°10.627 2°36.176 22.3749 0.065994 0.351486 -0.965744
2010-05-20 13:17:46 51°10.817 2°36.286 22.3882 0.065994 0.351486 -1.000568
2010-05-20 13:18:46 51°11.007 2°36.393 22.3949 0.065994 0.35148 -1.000568
2010-05-20 13:19:46 51°11.196 2°36.503 22.4039 0.065994 0.351475 -1.000568
2010-05-20 13:20:46 51°11.387 2°36.612 22.412 0.065994 0.351464 -1.000568
2010-05-20 13:21:46 51°11.577 2°36.72 22.4188 0.065994 0.351458 -0.965744
2010-05-20 13:22:46 51°11.767 2°36.829 22.4298 0.065994 0.351442 -1.000568
2010-05-20 13:23:46 51°11.958 2°36.94 22.4374 0.065994 0.351436 -1.000568
2010-05-20 13:24:46 51°12.149 2°37.05 22.4455 0.065994 0.351425 -0.965744
2010-05-20 13:25:46 51°12.34 2°37.159 22.4551 0.065994 0.35142 -1.000568
2010-05-20 13:26:46 51°12.536 2°37.249 22.4681 0.065994 0.351404 -0.965744
2010-05-20 13:27:46 51°12.742 2°37.234 22.4839 0.065994 0.351486 -1.000568
2010-05-20 13:28:46 51°12.948 2°37.219 22.4885 0.065994 0.351393 -1.000568
2010-05-20 13:29:46 51°13.154 2°37.246 22.4947 0.066098 0.351953 -0.965744
2010-05-20 13:30:46 51°13.361 2°37.281 22.5027 0.065994 0.35136 -0.965744
2010-05-20 13:31:46 51°13.568 2°37.252 22.5115 0.066098 0.351964 -0.965744
2010-05-20 13:32:46 51°13.761 2°37.074 22.5204 0.066098 0.351947 -0.965744
2010-05-20 13:33:46 51°13.928 2°36.837 22.5306 0.065994 0.351371 -0.965744
2010-05-20 13:34:46 51°14.107 2°36.632 22.5353 0.066098 0.351942 -0.965744
2010-05-20 13:35:46 51°14.289 2°36.445 22.5382 0.066098 0.351936 -1.000568
2010-05-20 13:36:46 51°14.481 2°36.294 22.5572 0.066098 0.351925 -1.000568
2010-05-20 13:37:46 51°14.693 2°36.248 22.5547 0.066098 0.351931 -1.000568
2010-05-20 13:38:46 51°14.904 2°36.225 22.5557 0.066098 0.351909 -0.965744
2010-05-20 13:39:46 51°15.116 2°36.201 22.5595 0.066098 0.351898 -1.000568
2010-05-20 13:40:46 51°15.328 2°36.171 22.5638 0.066098 0.351898 -1.000568
2010-05-20 13:41:46 51°15.539 2°36.14 22.5705 0.066098 0.351887 -0.965744
2010-05-20 13:42:46 51°15.75 2°36.101 22.5681 0.066098 0.351882 -0.965744
2010-05-20 13:43:46 51°15.96 2°36.058 22.5822 0.066098 0.351876 -1.000568
2010-05-20 13:44:46 51°16.169 2°36.052 22.5727 0.066098 0.351865 -1.000568
2010-05-20 13:45:46 51°16.377 2°36.056 22.5753 0.066098 0.35186 -1.000568
2010-05-20 13:46:46 51°16.584 2°36.056 22.5801 0.066098 0.351854 -0.965744
2010-05-20 13:47:46 51°16.79 2°36.06 22.5768 0.066098 0.351849 -1.000568
2010-05-20 13:48:46 51°16.992 2°36.066 22.5793 0.066098 0.351843 -1.000568
2010-05-20 13:49:46 51°17.195 2°36.084 22.5816 0.066098 0.351843 -0.965744
2010-05-20 13:50:46 51°17.397 2°36.105 22.5962 0.066098 0.351854 -0.965744
2010-05-20 13:51:46 51°17.598 2°36.128 22.5901 0.066098 0.351843 -0.965744
2010-05-20 13:52:46 51°17.8 2°36.151 22.5928 0.066098 0.351832 -0.965744
2010-05-20 13:53:46 51°18.004 2°36.176 22.5918 0.066098 0.351821 -0.965744
2010-05-20 13:54:46 51°18.209 2°36.2 22.6064 0.066098 0.351816 -0.965744
2010-05-20 13:55:46 51°18.417 2°36.224 22.5971 0.066098 0.35181 -0.965744
2010-05-20 13:56:46 51°18.624 2°36.246 22.5969 0.066098 0.351805 -1.000568
2010-05-20 13:57:46 51°18.831 2°36.269 22.6042 0.066098 0.351816 -0.965744
2010-05-20 13:58:46 51°19.036 2°36.291 22.6016 0.066098 0.3518 -1.035392
2010-05-20 13:59:46 51°19.242 2°36.311 22.6077 0.066098 0.351783 -0.965744
2010-05-20 14:00:46 51°19.448 2°36.336 22.6046 0.066098 0.351794 -1.000568
2010-05-20 14:01:46 51°19.653 2°36.361 22.5974 0.066098 0.3518 -1.000568
2010-05-20 14:02:46 51°19.858 2°36.384 22.5945 0.066098 0.351789 -0.965744
2010-05-20 14:03:46 51°20.058 2°36.434 22.6041 0.066098 0.351805 -1.035392
2010-05-20 14:04:46 51°20.253 2°36.516 22.6162 0.066098 0.351783 -1.000568
2010-05-20 14:05:46 51°20.431 2°36.652 22.6533 0.066098 0.3518 -1.035392
2010-05-20 14:06:46 51°20.507 2°36.929 22.7317 0.066098 0.3518 -0.965744
2010-05-20 14:07:46 51°20.472 2°37.25 22.7106 0.066098 0.351761 -0.965744
2010-05-20 14:08:46 51°20.353 2°37.536 22.698 0.066098 0.351756 -1.000568
2010-05-20 14:09:46 51°20.231 2°37.822 22.6918 0.066098 0.351745 -0.965744
2010-05-20 14:10:46 51°20.112 2°38.108 22.6837 0.066098 0.351761 -0.965744
2010-05-20 14:11:46 51°19.994 2°38.391 22.6855 0.066098 0.351761 -1.000568
2010-05-20 14:12:46 51°19.854 2°38.649 22.6776 0.066098 0.351767 -0.965744
2010-05-20 14:13:46 51°19.702 2°38.896 22.6807 0.066098 0.35175 -0.965744
2010-05-20 14:14:46 51°19.555 2°39.145 22.6753 0.066098 0.351745 -1.000568
2010-05-20 14:15:46 51°19.406 2°39.388 22.6717 0.066098 0.351723 -1.000568
2010-05-20 14:16:46 51°19.26 2°39.641 22.6888 0.066202 0.352409 -0.965744
2010-05-20 14:17:46 51°19.115 2°39.897 22.682 0.066098 0.351707 -1.000568
2010-05-20 14:18:46 51°18.965 2°40.155 22.6823 0.066098 0.351707 -0.965744
2010-05-20 14:19:46 51°18.816 2°40.415 22.6862 0.066202 0.352299 -1.000568
2010-05-20 14:20:46 51°18.667 2°40.672 22.7095 0.066098 0.351718 -1.000568
2010-05-20 14:21:46 51°18.512 2°40.921 22.6759 0.066098 0.351685 -1.000568
2010-05-20 14:22:46 51°18.361 2°41.174 22.6862 0.066202 0.35225 -1.000568
2010-05-20 14:23:46 51°18.214 2°41.432 22.6863 0.066202 0.352239 -0.965744
2010-05-20 14:24:46 51°18.067 2°41.69 22.7055 0.066202 0.35225 -1.000568
2010-05-20 14:25:46 51°17.918 2°41.944 22.6962 0.066202 0.352223 -1.000568
2010-05-20 14:26:46 51°17.77 2°42.2 22.6797 0.066202 0.352206 -1.000568
2010-05-20 14:27:46 51°17.622 2°42.459 22.7008 0.066202 0.352206 -1.000568
2010-05-20 14:28:46 51°17.475 2°42.719 22.6946 0.066202 0.352173 -0.965744
2010-05-20 14:29:46 51°17.306 2°42.937 22.7007 0.066202 0.352157 -1.000568
2010-05-20 14:30:46 51°17.088 2°43.048 22.7247 0.066202 0.352168 -1.000568
2010-05-20 14:31:46 51°16.868 2°43.158 22.6998 0.066202 0.352162 -1.000568
2010-05-20 14:32:46 51°16.656 2°43.296 22.7166 0.066202 0.352157 -0.965744
2010-05-20 14:33:46 51°16.462 2°43.489 22.6992 0.066202 0.352124 -1.000568
2010-05-20 14:34:46 51°16.279 2°43.708 22.7024 0.066202 0.352119 -0.965744
2010-05-20 14:35:46 51°16.12 2°43.966 22.6957 0.066202 0.352091 -1.000568
2010-05-20 14:36:46 51°15.966 2°44.233 22.7011 0.066202 0.352086 -0.965744
2010-05-20 14:37:46 51°15.857 2°44.544 21.7338 0.066202 0.352042 -1.000568
2010-05-20 14:38:46 51°15.799 2°44.888 21.972 0.066202 0.352042 -0.965744
2010-05-20 14:39:46 51°15.751 2°45.234 21.9924 0.066202 0.352048 -1.000568
2010-05-20 14:40:46 51°15.706 2°45.583 21.9778 0.066202 0.352031 -0.965744
2010-05-20 14:41:46 51°15.664 2°45.932 22.0354 0.066202 0.35202 -0.965744
2010-05-20 14:42:46 51°15.625 2°46.282 22.1257 0.066202 0.352015 -0.965744
2010-05-20 14:43:46 51°15.582 2°46.628 22.1447 0.066202 0.351999 -0.965744
2010-05-20 14:44:46 51°15.541 2°46.974 22.0855 0.066202 0.351982 -1.000568
2010-05-20 14:45:46 51°15.499 2°47.319 22.1107 0.066202 0.351966 -1.000568
2010-05-20 14:46:46 51°15.47 2°47.665 22.1636 0.066202 0.351944 -0.965744
2010-05-20 14:47:46 51°15.463 2°48.013 22.1306 0.066202 0.351933 -1.000568
2010-05-20 14:48:46 51°15.454 2°48.362 22.1375 0.066202 0.351933 -1.000568
2010-05-20 14:49:46 51°15.449 2°48.712 22.1648 0.066202 0.351928 -1.000568
2010-05-20 14:50:46 51°15.443 2°49.065 22.1891 0.066202 0.351917 -1.035392
2010-05-20 14:51:46 51°15.435 2°49.418 22.1725 0.066202 0.351895 -0.965744
2010-05-20 14:52:46 51°15.431 2°49.77 22.1669 0.066202 0.351879 -1.000568
2010-05-20 14:53:46 51°15.423 2°50.121 22.2075 0.066202 0.351862 -0.965744
2010-05-20 14:54:46 51°15.416 2°50.472 22.1961 0.066202 0.351862 -1.000568
2010-05-20 14:55:46 51°15.41 2°50.821 22.2298 0.066202 0.351851 -0.965744
2010-05-20 14:56:46 51°15.405 2°51.173 22.2121 0.066202 0.35184 -0.965744
2010-05-20 14:57:46 51°15.399 2°51.525 22.2844 0.066202 0.351819 -0.93092
2010-05-20 14:58:46 51°15.322 2°51.857 22.2513 0.066202 0.351813 -1.000568
2010-05-20 14:59:46 51°15.267 2°52.193 22.238 0.066202 0.351786 -1.000568
2010-05-20 15:00:46 51°15.229 2°52.541 22.2372 0.066202 0.351791 -0.965744
2010-05-20 15:01:46 51°15.193 2°52.891 22.2801 0.066202 0.351791 -1.000568
2010-05-20 15:02:46 51°15.166 2°53.246 22.2426 0.066202 0.351764 -0.965744
2010-05-20 15:03:46 51°15.136 2°53.602 22.275 0.066306 0.352339 -1.000568
2010-05-20 15:04:46 51°15.091 2°53.954 22.286 0.066202 0.351753 -1.000568
2010-05-20 15:05:46 51°15.025 2°54.295 22.3053 0.066306 0.352296 -0.965744
2010-05-20 15:06:46 51°14.88 2°54.571 22.3021 0.066202 0.351737 -1.000568
2010-05-20 15:07:46 51°14.704 2°54.798 22.2973 0.066202 0.351715 -0.965744
2010-05-20 15:08:46 51°14.522 2°55.005 22.311 0.066306 0.352279 -1.000568
2010-05-20 15:09:46 51°14.333 2°55.188 22.3055 0.066306 0.352279 -0.965744
2010-05-20 15:10:50 51°14.176 2°55.375 22.3106 0.066306 0.352257 -1.000568
2010-05-20 15:11:49 51°14.053 2°55.477 22.3123 0.066306 0.352263 -0.965744
2010-05-20 15:12:50 51°13.946 2°55.551 22.2954 0.066306 0.352241 -0.965744
2010-05-20 15:13:50 51°13.846 2°55.615 22.2888 0.066306 0.352225 -1.000568
2010-05-20 15:14:50 51°13.763 2°55.699 22.3126 0.066306 0.352219 -0.965744
2010-05-20 15:15:50 51°13.71 2°55.81 22.3435 0.066306 0.352197 -1.035392
2010-05-20 15:16:50 51°13.672 2°55.913 22.3605 0.066306 0.352186 -0.965744
2010-05-20 15:17:50 51°13.661 2°55.958 22.3376 0.066306 0.352148 -1.035392